createdAt,value
2024-02-15T00:01:22.902Z,3457.00
2024-02-15T00:03:49.658Z,3473.25
2024-02-15T00:06:16.470Z,3468.00
2024-02-15T00:08:43.288Z,3494.60
2024-02-15T00:11:10.017Z,3488.20
2024-02-15T00:13:36.742Z,3446.50
2024-02-15T00:16:03.797Z,3297.50
2024-02-15T00:18:32.674Z,3457.00
2024-02-15T00:20:59.512Z,3485.40
2024-02-15T00:23:26.293Z,3486.80
2024-02-15T00:25:52.989Z,3474.20
2024-02-15T00:28:19.679Z,3478.60
2024-02-15T00:30:46.386Z,3486.80
2024-02-15T00:33:13.297Z,3473.00
2024-02-15T00:35:41.864Z,3485.40
2024-02-15T00:38:09.236Z,3307.00
2024-02-15T00:40:36.128Z,3451.75
2024-02-15T00:43:02.985Z,3490.60
2024-02-15T00:45:29.703Z,3482.60
2024-02-15T00:47:56.509Z,3466.25
2024-02-15T00:50:23.237Z,3477.00
2024-02-15T00:52:51.409Z,3464.50
2024-02-15T00:55:18.199Z,3478.50
2024-02-15T00:57:44.896Z,3475.00
2024-02-15T01:00:12.413Z,3451.75
2024-02-15T01:02:39.263Z,3451.75
2024-02-15T01:05:06.297Z,3450.00
2024-02-15T01:07:33.014Z,3441.80
2024-02-15T01:10:01.117Z,3425.20
2024-02-15T01:12:27.899Z,3457.00
2024-02-15T01:14:54.734Z,3478.40
2024-02-15T01:17:21.557Z,3480.00
2024-02-15T01:19:48.300Z,3487.40
2024-02-15T01:22:15.056Z,3497.20
2024-02-15T01:24:41.750Z,3470.40
2024-02-15T01:27:09.886Z,3466.60
2024-02-15T01:29:36.908Z,3485.80
2024-02-15T01:32:04.386Z,3439.50
2024-02-15T01:34:31.202Z,3477.75
2024-02-15T01:36:57.951Z,3483.60
2024-02-15T01:39:24.676Z,3477.00
2024-02-15T01:41:51.434Z,3436.40
2024-02-15T01:44:19.771Z,3438.00
2024-02-15T01:46:46.945Z,3471.60
2024-02-15T01:49:13.910Z,3473.00
2024-02-15T01:51:41.387Z,3425.25
2024-02-15T01:54:08.246Z,3515.40
2024-02-15T01:56:35.078Z,3465.20
2024-02-15T01:59:02.685Z,3469.00
2024-02-15T02:01:31.911Z,3477.00
2024-02-15T02:03:59.414Z,3451.75
2024-02-15T02:06:26.582Z,3487.40
2024-02-15T02:08:53.736Z,3472.80
2024-02-15T02:11:21.136Z,3514.00
2024-02-15T02:13:47.828Z,3431.25
2024-02-15T02:16:27.076Z,3488.60
2024-02-15T02:18:56.129Z,3435.20
2024-02-15T02:21:23.293Z,3491.40
2024-02-15T02:23:54.306Z,3481.80
2024-02-15T02:26:23.188Z,3495.60
2024-02-15T02:28:50.416Z,3487.25
2024-02-15T02:31:17.290Z,3439.50
2024-02-15T02:33:49.275Z,3487.50
2024-02-15T02:36:16.094Z,3483.20
2024-02-15T02:38:42.861Z,3496.75
2024-02-15T02:41:09.624Z,3488.80
2024-02-15T02:43:37.669Z,3442.80
2024-02-15T02:46:04.714Z,3473.20
2024-02-15T02:48:31.567Z,3471.75
2024-02-15T02:50:58.592Z,3439.50
2024-02-15T02:53:25.477Z,3468.50
2024-02-15T02:55:52.686Z,3493.80
2024-02-15T02:58:19.329Z,3477.00
2024-02-15T03:00:47.445Z,3450.00
2024-02-15T03:03:14.227Z,3464.50
2024-02-15T03:05:41.005Z,3428.25
2024-02-15T03:08:09.189Z,3439.50
2024-02-15T03:10:36.051Z,3478.40
2024-02-15T03:13:02.735Z,3477.00
2024-02-15T03:15:29.461Z,3473.00
2024-02-15T03:17:57.587Z,3504.20
2024-02-15T03:20:24.406Z,3426.75
2024-02-15T03:22:54.831Z,3482.25
2024-02-15T03:25:21.534Z,3481.80
2024-02-15T03:27:48.190Z,3454.00
2024-02-15T03:30:15.224Z,3426.75
2024-02-15T03:32:42.062Z,3327.00
2024-02-15T03:35:10.272Z,3458.60
2024-02-15T03:37:36.934Z,3471.80
2024-02-15T03:40:04.446Z,3475.60
2024-02-15T03:42:31.785Z,3489.00
2024-02-15T03:44:58.474Z,3478.40
2024-02-15T03:47:25.162Z,3486.00
2024-02-15T03:49:51.822Z,3478.80
2024-02-15T03:52:19.849Z,3465.20
2024-02-15T03:54:46.550Z,3459.60
2024-02-15T03:57:13.222Z,3448.50
2024-02-15T03:59:39.933Z,3470.40
2024-02-15T04:02:06.646Z,3506.80
2024-02-15T04:04:33.355Z,3316.80
2024-02-15T04:07:00.270Z,3460.00
2024-02-15T04:09:28.460Z,3531.60
2024-02-15T04:11:55.283Z,3476.00
2024-02-15T04:14:22.041Z,3487.50
2024-02-15T04:16:48.716Z,3294.00
2024-02-15T04:19:16.490Z,3438.00
2024-02-15T04:21:43.201Z,3484.00
2024-02-15T04:24:09.892Z,3435.20
2024-02-15T04:26:37.995Z,3502.25
2024-02-15T04:29:08.511Z,3496.75
2024-02-15T04:31:36.349Z,3478.40
2024-02-15T04:34:03.155Z,3444.75
2024-02-15T04:36:30.008Z,3442.80
2024-02-15T04:38:56.751Z,3496.50
2024-02-15T04:41:23.451Z,3477.00
2024-02-15T04:43:52.001Z,3514.00
2024-02-15T04:46:18.770Z,3475.80
2024-02-15T04:48:45.590Z,3465.20
2024-02-15T04:51:12.875Z,3436.00
2024-02-15T04:53:39.716Z,3444.75
2024-02-15T04:56:06.860Z,3450.00
2024-02-15T04:58:33.563Z,3438.00
2024-02-15T05:01:01.652Z,3508.40
2024-02-15T05:03:28.344Z,3451.75
2024-02-15T05:05:55.096Z,3458.80
2024-02-15T05:08:21.841Z,3437.80
2024-02-15T05:10:48.577Z,3444.20
2024-02-15T05:13:15.361Z,3450.00
2024-02-15T05:15:42.215Z,3450.00
2024-02-15T05:18:10.504Z,3479.60
2024-02-15T05:20:37.241Z,3477.00
2024-02-15T05:23:04.335Z,3507.50
2024-02-15T05:25:31.037Z,3477.00
2024-02-15T05:27:58.194Z,3478.40
2024-02-15T05:30:26.091Z,3474.00
2024-02-15T05:32:53.327Z,3529.00
2024-02-15T05:35:21.469Z,3471.60
2024-02-15T05:37:48.142Z,3459.60
2024-02-15T05:40:15.106Z,3470.00
2024-02-15T05:42:42.942Z,3497.20
2024-02-15T05:45:30.108Z,3515.40
2024-02-15T05:47:57.037Z,3499.40
2024-02-15T05:50:25.733Z,3481.80
2024-02-15T05:52:52.714Z,3518.80
2024-02-15T05:55:19.407Z,3470.40
2024-02-15T05:57:46.190Z,3425.25
2024-02-15T06:00:21.570Z,3481.80
2024-02-15T06:02:49.933Z,3508.40
2024-02-15T06:05:16.690Z,3498.50
2024-02-15T06:07:45.046Z,3480.00
2024-02-15T06:10:11.966Z,3319.50
2024-02-15T06:12:38.661Z,3489.25
2024-02-15T06:15:05.822Z,3464.00
2024-02-15T06:17:32.622Z,3313.00
2024-02-15T06:19:59.398Z,3493.25
2024-02-15T06:22:26.084Z,3514.00
2024-02-15T06:24:54.123Z,3471.80
2024-02-15T06:27:20.808Z,3485.75
2024-02-15T06:29:47.624Z,3469.60
2024-02-15T06:32:14.379Z,3491.60
2024-02-15T06:34:43.309Z,3475.40
2024-02-15T06:37:10.041Z,3431.50
2024-02-15T06:39:36.720Z,3441.75
2024-02-15T06:42:05.436Z,3361.40
2024-02-15T06:44:32.283Z,3482.00
2024-02-15T06:46:59.046Z,3500.50
2024-02-15T06:49:25.896Z,3498.20
2024-02-15T06:51:52.715Z,3432.75
2024-02-15T06:54:19.548Z,3490.00
2024-02-15T06:56:46.674Z,3509.80
2024-02-15T06:59:15.403Z,3491.60
2024-02-15T07:01:42.247Z,3505.40
2024-02-15T07:04:09.125Z,3418.25
2024-02-15T07:06:37.417Z,3416.75
2024-02-15T07:09:04.479Z,3492.60
2024-02-15T07:11:32.123Z,3425.25
2024-02-15T07:13:58.994Z,3461.20
2024-02-15T07:16:27.184Z,3485.50
2024-02-15T07:18:54.246Z,3475.00
2024-02-15T07:21:21.522Z,3469.60
2024-02-15T07:23:48.454Z,3509.40
2024-02-15T07:26:15.271Z,3487.00
2024-02-15T07:28:42.115Z,3447.20
2024-02-15T07:31:08.877Z,3452.60
2024-02-15T07:33:37.089Z,3459.60
2024-02-15T07:36:04.408Z,3503.80
2024-02-15T07:38:31.149Z,3458.80
2024-02-15T07:40:57.821Z,3498.20
2024-02-15T07:43:24.492Z,3294.60
2024-02-15T07:45:51.189Z,3465.40
2024-02-15T07:48:18.100Z,3455.60
2024-02-15T07:50:46.513Z,3480.00
2024-02-15T07:53:13.517Z,3467.75
2024-02-15T07:55:40.301Z,3469.50
2024-02-15T07:58:06.982Z,3480.60
2024-02-15T08:00:33.771Z,3418.25
2024-02-15T08:03:00.580Z,3472.20
2024-02-15T08:05:27.387Z,3436.40
2024-02-15T08:07:55.576Z,3459.80
2024-02-15T08:10:22.230Z,3459.80
2024-02-15T08:12:48.928Z,3476.50
2024-02-15T08:15:15.959Z,3491.20
2024-02-15T08:17:44.761Z,3476.20
2024-02-15T08:20:12.410Z,3480.60
2024-02-15T08:22:39.443Z,3363.00
2024-02-15T08:25:10.441Z,3467.75
2024-02-15T08:27:38.445Z,3477.80
2024-02-15T08:30:06.500Z,3171.40
2024-02-15T08:32:33.337Z,3469.20
2024-02-15T08:35:00.389Z,3459.00
2024-02-15T08:37:27.313Z,3386.80
2024-02-15T08:39:53.980Z,3473.40
2024-02-15T08:42:22.120Z,3407.00
2024-02-15T08:44:48.972Z,3412.00
2024-02-15T08:47:15.686Z,3462.20
2024-02-15T08:49:42.407Z,3453.50
2024-02-15T08:52:09.188Z,3389.60
2024-02-15T08:54:36.919Z,3405.20
2024-02-15T08:57:03.907Z,3453.80
2024-02-15T08:59:32.022Z,3184.80
2024-02-15T09:01:58.705Z,3458.00
2024-02-15T09:04:25.370Z,3382.40
2024-02-15T09:06:52.340Z,3397.00
2024-02-15T09:09:19.171Z,3449.60
2024-02-15T09:11:45.990Z,3397.00
2024-02-15T09:14:12.757Z,3446.60
2024-02-15T09:16:40.798Z,2808.60
2024-02-15T09:19:07.639Z,3386.75
2024-02-15T09:21:34.431Z,3388.75
2024-02-15T09:24:01.231Z,3397.00
2024-02-15T09:26:27.906Z,3430.50
2024-02-15T09:28:54.691Z,3376.20
2024-02-15T09:31:21.394Z,3465.00
2024-02-15T09:33:49.614Z,3393.50
2024-02-15T09:36:16.501Z,3391.40
2024-02-15T09:38:43.324Z,3395.60
2024-02-15T09:41:10.206Z,3388.60
2024-02-15T09:43:37.168Z,3457.80
2024-02-15T09:46:04.360Z,3427.00
2024-02-15T09:48:33.007Z,3422.25
2024-02-15T09:51:02.638Z,3375.00
2024-02-15T09:53:29.790Z,3436.80
2024-02-15T09:55:57.185Z,3209.40
2024-02-15T09:58:23.910Z,3383.80
2024-02-15T10:00:50.905Z,3376.80
2024-02-15T10:03:20.243Z,3395.60
2024-02-15T10:05:49.488Z,3383.80
2024-02-15T10:08:17.619Z,3251.20
2024-02-15T10:10:44.325Z,3371.60
2024-02-15T10:13:14.505Z,3376.80
2024-02-15T10:15:41.386Z,173.25
2024-02-15T10:18:09.625Z,3370.40
2024-02-15T10:20:36.744Z,3364.60
2024-02-15T10:23:13.442Z,3381.00
2024-02-15T10:25:42.120Z,3364.60
2024-02-15T10:28:10.440Z,3068.00
2024-02-15T10:30:38.409Z,3370.20
2024-02-15T10:33:06.445Z,3369.75
2024-02-15T10:35:33.394Z,3364.60
2024-02-15T10:38:07.408Z,3347.20
2024-02-15T10:40:34.139Z,3367.00
2024-02-15T10:43:04.332Z,3369.80
2024-02-15T10:45:32.590Z,3357.80
2024-02-15T10:47:59.919Z,3357.80
2024-02-15T10:50:26.967Z,2844.40
2024-02-15T10:52:56.356Z,3168.80
2024-02-15T10:55:36.730Z,3376.80
2024-02-15T10:58:06.721Z,3286.80
2024-02-15T11:00:34.808Z,3366.25
2024-02-15T11:03:03.218Z,3185.80
2024-02-15T11:05:34.166Z,3372.60
2024-02-15T11:08:01.480Z,3381.00
2024-02-15T11:10:29.069Z,2468.00
2024-02-15T11:12:55.819Z,3361.00
2024-02-15T11:15:44.779Z,3051.75
2024-02-15T11:18:11.859Z,3024.00
2024-02-15T11:20:48.221Z,3038.75
2024-02-15T11:23:35.535Z,2411.80
2024-02-15T11:26:04.878Z,2994.00
2024-02-15T11:28:37.650Z,2040.80
2024-02-15T11:31:08.302Z,2410.20
2024-02-15T11:33:36.014Z,2721.80
2024-02-15T11:36:07.531Z,1003.50
2024-02-15T11:38:34.633Z,1282.20
2024-02-15T11:41:02.795Z,2659.80
2024-02-15T11:43:59.982Z,2793.60
2024-02-15T11:46:28.606Z,156.00
2024-02-15T11:48:55.530Z,62.00
2024-02-15T11:51:29.804Z,30.60
2024-02-15T11:54:03.787Z,51.80
2024-02-15T11:56:30.631Z,970.00
2024-02-15T11:59:05.111Z,987.80
2024-02-15T12:01:33.884Z,799.40
2024-02-15T12:04:06.810Z,245.50
2024-02-15T12:06:34.685Z,772.60
2024-02-15T12:09:01.708Z,33.60
2024-02-15T12:11:28.467Z,21.00
2024-02-15T12:13:55.174Z,27.75
2024-02-15T12:16:21.863Z,7.50
2024-02-15T12:18:50.428Z,210.75
2024-02-15T12:21:20.843Z,17.00
2024-02-15T12:23:47.779Z,10.75
2024-02-15T12:26:14.639Z,7.00
2024-02-15T12:28:45.549Z,13.00
2024-02-15T12:31:13.296Z,9.75
2024-02-15T12:33:40.136Z,1.50
2024-02-15T12:36:09.402Z,12.50
2024-02-15T12:38:36.775Z,10.25
2024-02-15T12:41:03.685Z,8.80
2024-02-15T12:43:30.351Z,11.50
2024-02-15T12:45:57.229Z,4.00
2024-02-15T12:48:24.245Z,14.25
2024-02-15T12:50:51.088Z,8.75
2024-02-15T12:53:23.430Z,13.50
2024-02-15T12:55:54.344Z,0.25
2024-02-15T12:58:21.023Z,8.00
2024-02-15T13:00:47.798Z,15.50
2024-02-15T13:03:14.528Z,11.75
2024-02-15T13:05:41.888Z,9.75
2024-02-15T13:08:09.098Z,8.00
2024-02-15T13:10:37.971Z,4.60
2024-02-15T13:13:04.875Z,4.80
2024-02-15T13:15:31.800Z,6.80
2024-02-15T13:17:58.749Z,7.60
2024-02-15T13:20:25.702Z,5.00
2024-02-15T13:22:52.409Z,4.40
2024-02-15T13:25:19.078Z,3.00
2024-02-15T13:27:47.156Z,5.00
2024-02-15T13:30:14.392Z,13.00
2024-02-15T13:32:41.639Z,13.25
2024-02-15T13:35:09.793Z,10.25
2024-02-15T13:37:36.482Z,4.80
2024-02-15T13:40:03.306Z,4.80
2024-02-15T13:42:30.021Z,9.60
2024-02-15T13:44:58.164Z,10.00
2024-02-15T13:47:24.878Z,5.40
2024-02-15T13:49:51.781Z,9.00
2024-02-15T13:52:18.492Z,15.25
2024-02-15T13:54:45.180Z,3.80
2024-02-15T13:57:12.065Z,4.20
2024-02-15T13:59:39.172Z,4.80
2024-02-15T14:02:07.237Z,4.40
2024-02-15T14:04:33.952Z,7.80
2024-02-15T14:07:00.701Z,5.40
2024-02-15T14:09:28.607Z,4.00
2024-02-15T14:11:55.314Z,6.00
2024-02-15T14:14:22.029Z,9.50
2024-02-15T14:16:48.732Z,8.75
2024-02-15T14:19:16.869Z,15.00
2024-02-15T14:21:43.520Z,3.50
2024-02-15T14:24:10.241Z,9.75
2024-02-15T14:26:37.021Z,7.40
2024-02-15T14:29:03.697Z,6.00
2024-02-15T14:31:30.384Z,7.80
2024-02-15T14:33:57.310Z,12.25
2024-02-15T14:36:25.458Z,7.40
2024-02-15T14:38:52.329Z,3.80
2024-02-15T14:41:32.333Z,5.75
2024-02-15T14:44:00.244Z,7.40
2024-02-15T14:46:26.954Z,5.00
2024-02-15T14:48:53.855Z,6.75
2024-02-15T14:51:20.839Z,9.00
2024-02-15T14:53:49.365Z,8.25
2024-02-15T14:56:16.011Z,22.50
2024-02-15T14:58:42.673Z,18.00
2024-02-15T15:01:10.796Z,4.25
2024-02-15T15:03:38.116Z,4.75
2024-02-15T15:06:05.781Z,9.25
2024-02-15T15:08:32.744Z,41.25
2024-02-15T15:11:01.063Z,186.75
2024-02-15T15:13:27.773Z,2856.20
2024-02-15T15:15:54.638Z,3377.75
2024-02-15T15:18:21.449Z,3383.00
2024-02-15T15:20:48.333Z,3385.80
2024-02-15T15:23:15.055Z,3306.40
2024-02-15T15:25:41.945Z,3373.80
2024-02-15T15:28:10.153Z,3379.50
2024-02-15T15:30:37.080Z,3381.25
2024-02-15T15:33:04.472Z,3383.00
2024-02-15T15:35:34.040Z,3387.20
2024-02-15T15:38:01.454Z,3384.75
2024-02-15T15:40:28.142Z,3384.00
2024-02-15T15:42:54.826Z,3371.25
2024-02-15T15:45:23.028Z,3374.75
2024-02-15T15:47:49.849Z,3381.25
2024-02-15T15:50:16.591Z,3387.20
2024-02-15T15:52:43.523Z,3314.80
2024-02-15T15:55:10.347Z,3397.00
2024-02-15T15:57:37.051Z,3399.80
2024-02-15T16:00:04.668Z,3391.75
2024-02-15T16:02:32.723Z,3399.80
2024-02-15T16:05:01.965Z,3385.80
2024-02-15T16:07:29.212Z,3148.20
2024-02-15T16:09:55.920Z,3378.50
2024-02-15T16:12:22.721Z,3378.20
2024-02-15T16:14:50.403Z,3391.40
2024-02-15T16:17:17.368Z,3395.60
2024-02-15T16:19:45.428Z,3441.00
2024-02-15T16:22:12.266Z,3374.75
2024-02-15T16:24:38.966Z,3388.60
2024-02-15T16:27:05.787Z,3387.20
2024-02-15T16:29:32.522Z,3445.20
2024-02-15T16:31:59.326Z,3383.80
2024-02-15T16:34:26.341Z,3381.00
2024-02-15T16:36:54.645Z,3401.20
2024-02-15T16:39:21.557Z,3392.80
2024-02-15T16:41:48.479Z,3069.00
2024-02-15T16:44:15.361Z,3387.80
2024-02-15T16:46:42.942Z,3390.00
2024-02-15T16:49:10.571Z,3401.20
2024-02-15T16:51:37.425Z,3104.60
2024-02-15T16:54:05.680Z,3364.80
2024-02-15T16:56:32.372Z,3384.75
2024-02-15T16:58:59.151Z,3395.00
2024-02-15T17:01:26.392Z,3393.50
2024-02-15T17:03:53.262Z,3405.00
2024-02-15T17:06:20.514Z,3383.00
2024-02-15T17:08:47.678Z,3395.60
2024-02-15T17:11:15.983Z,3402.60
2024-02-15T17:13:42.677Z,3448.25
2024-02-15T17:16:09.312Z,3398.00
2024-02-15T17:18:36.080Z,3427.25
2024-02-15T17:21:02.845Z,3402.60
2024-02-15T17:23:29.553Z,3398.60
2024-02-15T17:25:56.227Z,3386.40
2024-02-15T17:28:24.410Z,3388.25
2024-02-15T17:30:51.255Z,3379.60
2024-02-15T17:33:18.023Z,1611.80
2024-02-15T17:35:45.103Z,2474.00
2024-02-15T17:38:11.768Z,857.80
2024-02-15T17:40:39.027Z,1492.20
2024-02-15T17:43:05.916Z,1143.60
2024-02-15T17:45:34.093Z,3386.50
2024-02-15T17:48:00.903Z,2227.00
2024-02-15T17:50:27.611Z,3358.00
2024-02-15T17:52:54.512Z,2990.00
2024-02-15T17:55:21.695Z,3402.60
2024-02-15T17:57:48.647Z,720.40
2024-02-15T18:00:16.364Z,473.40
2024-02-15T18:02:44.755Z,3374.00
2024-02-15T18:05:11.799Z,788.25
2024-02-15T18:07:39.165Z,115.00
2024-02-15T18:10:07.353Z,447.00
2024-02-15T18:12:34.185Z,3388.60
2024-02-15T18:15:01.664Z,3323.60
2024-02-15T18:17:28.413Z,549.60
2024-02-15T18:19:56.497Z,3446.60
2024-02-15T18:22:23.173Z,133.25
2024-02-15T18:24:49.873Z,3427.20
2024-02-15T18:27:16.627Z,3398.40
2024-02-15T18:29:43.337Z,3406.75
2024-02-15T18:32:10.032Z,3452.20
2024-02-15T18:34:37.398Z,3384.75
2024-02-15T18:37:05.558Z,3402.60
2024-02-15T18:39:32.377Z,744.50
2024-02-15T18:41:59.207Z,3199.00
2024-02-15T18:44:25.868Z,3472.00
2024-02-15T18:46:52.552Z,3442.60
2024-02-15T18:49:26.889Z,3146.40
2024-02-15T18:51:59.643Z,3455.20
2024-02-15T18:54:27.878Z,3463.40
2024-02-15T18:56:54.630Z,3474.50
2024-02-15T18:59:21.359Z,3455.25
2024-02-15T19:01:48.203Z,3411.20
2024-02-15T19:04:14.954Z,3472.00
2024-02-15T19:06:42.220Z,3472.00
2024-02-15T19:09:10.178Z,3486.80
2024-02-15T19:11:38.266Z,3477.80
2024-02-15T19:14:04.987Z,3455.50
2024-02-15T19:16:31.720Z,3455.50
2024-02-15T19:18:58.453Z,3411.20
2024-02-15T19:21:25.186Z,3457.25
2024-02-15T19:23:51.906Z,3470.00
2024-02-15T19:26:18.568Z,3466.50
2024-02-15T19:28:46.730Z,3478.40
2024-02-15T19:31:13.566Z,3461.25
2024-02-15T19:33:47.806Z,3407.00
2024-02-15T19:36:19.462Z,3494.50
2024-02-15T19:38:46.164Z,3472.75
2024-02-15T19:41:16.050Z,3479.80
2024-02-15T19:43:42.735Z,3488.20
2024-02-15T19:46:10.783Z,3466.25
2024-02-15T19:48:37.577Z,3457.00
2024-02-15T19:51:05.559Z,3486.80
2024-02-15T19:53:32.380Z,3482.60
2024-02-15T19:55:59.069Z,3494.50
2024-02-15T19:58:25.757Z,3444.20
2024-02-15T20:00:52.639Z,3466.75
2024-02-15T20:03:20.886Z,3473.40
2024-02-15T20:05:47.838Z,3459.50
2024-02-15T20:08:14.803Z,3492.60
2024-02-15T20:10:41.750Z,3491.20
2024-02-15T20:13:08.427Z,3501.75
2024-02-15T20:15:35.347Z,3485.60
2024-02-15T20:18:02.254Z,3496.80
2024-02-15T20:20:30.579Z,3501.75
2024-02-15T20:22:57.475Z,3484.00
2024-02-15T20:25:24.224Z,3496.80
2024-02-15T20:27:51.188Z,3503.80
2024-02-15T20:30:18.467Z,3489.80
2024-02-15T20:32:45.567Z,3485.60
2024-02-15T20:35:12.674Z,3496.80
2024-02-15T20:37:41.330Z,3474.80
2024-02-15T20:40:09.402Z,3495.40
2024-02-15T20:42:36.223Z,3478.00
2024-02-15T20:45:03.465Z,3450.40
2024-02-15T20:47:30.408Z,3503.80
2024-02-15T20:49:57.386Z,3484.20
2024-02-15T20:52:24.308Z,3502.40
2024-02-15T20:54:52.580Z,3480.50
2024-02-15T20:57:19.315Z,3505.25
2024-02-15T20:59:46.120Z,3492.60
2024-02-15T21:02:12.860Z,3505.25
2024-02-15T21:04:39.820Z,3502.40
2024-02-15T21:07:06.834Z,3477.00
2024-02-15T21:09:33.722Z,3483.67
2024-02-15T21:12:01.939Z,3505.25
2024-02-15T21:14:28.710Z,3509.40
2024-02-15T21:16:55.424Z,3503.80
2024-02-15T21:19:22.122Z,3457.40
2024-02-15T21:21:48.856Z,3502.40
2024-02-15T21:24:15.633Z,3410.00
2024-02-15T21:26:42.951Z,3514.00
2024-02-15T21:29:11.134Z,3443.40
2024-02-15T21:31:37.901Z,3471.00
2024-02-15T21:34:04.860Z,3494.75
2024-02-15T21:36:31.787Z,3484.20
2024-02-15T21:38:58.552Z,3456.00
2024-02-15T21:41:25.287Z,3509.00
2024-02-15T21:43:52.106Z,3486.00
2024-02-15T21:46:20.984Z,3524.40
2024-02-15T21:48:47.946Z,3371.25
2024-02-15T21:51:14.822Z,3469.60
2024-02-15T21:53:41.548Z,3447.00
2024-02-15T21:56:08.244Z,3232.50
2024-02-15T21:58:34.987Z,3466.20
2024-02-15T22:01:01.850Z,2817.25
2024-02-15T22:03:29.983Z,2825.40
2024-02-15T22:05:56.849Z,3080.40
2024-02-15T22:08:23.634Z,3220.20
2024-02-15T22:10:50.619Z,3369.80
2024-02-15T22:13:17.405Z,3498.50
2024-02-15T22:15:44.147Z,3471.60
2024-02-15T22:18:11.130Z,3491.00
2024-02-15T22:20:39.350Z,3297.80
2024-02-15T22:23:06.195Z,3471.75
2024-02-15T22:25:32.874Z,3294.50
2024-02-15T22:27:59.620Z,3469.00
2024-02-15T22:30:26.511Z,3453.75
2024-02-15T22:32:53.591Z,3213.75
2024-02-15T22:35:20.381Z,3438.00
2024-02-15T22:37:48.654Z,3471.60
2024-02-15T22:40:15.478Z,3499.00
2024-02-15T22:42:42.182Z,3479.00
2024-02-15T22:45:09.674Z,3450.25
2024-02-15T22:47:36.732Z,3457.25
2024-02-15T22:50:03.725Z,3475.50
2024-02-15T22:52:30.412Z,3462.75
2024-02-15T22:54:58.494Z,3459.00
2024-02-15T22:57:25.371Z,3473.50
2024-02-15T22:59:52.125Z,3380.25
2024-02-15T23:02:18.908Z,3488.25
2024-02-15T23:04:45.690Z,3468.00
2024-02-15T23:07:12.628Z,3380.75
2024-02-15T23:09:39.710Z,3388.50
2024-02-15T23:12:08.408Z,3488.50
2024-02-15T23:14:35.279Z,3319.50
2024-02-15T23:17:01.984Z,3330.33
2024-02-15T23:19:28.825Z,3324.00
2024-02-15T23:21:55.550Z,3327.00
2024-02-15T23:24:22.316Z,3316.50
2024-02-15T23:26:49.156Z,3319.50
2024-02-15T23:29:17.324Z,3329.50
2024-02-15T23:31:44.056Z,3482.75
2024-02-15T23:34:10.892Z,3388.75
2024-02-15T23:36:37.796Z,3352.50
2024-02-15T23:39:04.707Z,3333.00
2024-02-15T23:41:31.448Z,3332.50
2024-02-15T23:43:58.133Z,3490.25
2024-02-15T23:46:26.261Z,3479.25
2024-02-15T23:48:53.248Z,3323.00
2024-02-15T23:51:20.327Z,3486.25
2024-02-15T23:53:47.072Z,3313.50
2024-02-15T23:56:13.751Z,3316.50
2024-02-15T23:58:40.430Z,3319.50
